Terminal Aerodrome Forecast
Issued by NWS Charleston, WV

Current Version | Previous Version | Text Only | Print | Product List | Glossary Off
Versions: 1 2 3 4 5 6 7 8 9 10 11 12 13 14 15 16 17 18 19 20 21 22 23 24 25 26 27 28 29 30 31 32 33

000
FTUS41 KRLX 272350 RRA
TAFPKB
TAF
KPKB 272350Z 2800/2824 25004KT P6SM SCT045 SCT070
     FM280500 00000KT 3SM BR SCT070
     FM280700 00000KT 2SM BR SCT001 BKN080
     FM281200 00000KT 6SM -SHRA BKN040
     FM281500 00000KT 4SM SHRA VCTS BKN050CB
     FM282200 00000KT P6SM BKN060=

USA.gov is the U.S. government's official web portal to all federal, state and local government web resources and services.